Johnson County (6A4)
Johnson County, TN
Field Elevation: 2240
Lat: 36°25.07N  Long: 81°49.51W
CTAF/Unicom Freq: 122.7000
   
    
Weather Advisories
2017-02-26   01:13 Z
Altimeter 29.92" Hg
Wind 290° @ 12 KT
Gusts 16 KT
Visibility 10 SM
Ceiling CLR
Temperature 4° C (39° F)
Dewpoint -8° C (18° F)
Relative Humidity 41%
Density Altitude --
Condensation Altitude 8,100 feet
Wind Chill: 0° C (32° F)
Wind and Runways
Indicated Runway = 24
Headwind = 8 kt
Crosswind = 9 kt
History
 
 
 
More Info
NOAA Forecast
 
 
About Us
Belfort Instrument
 
 
FAA Disclaimer: The data displayed is for advisory purposes only and is not to be used for flight planning or operations. For official data, please call (not available) to hear the current automated AWOS voice message.
  METAR 6A4 260113Z AUTO 29012G16KT 10 SM CLR 04/M08 A2992